Time;durP1;ratioP1;P1;durP2;ratioP2;P2;SDS_P1;SDS_P2;PMS_P1;PMS_P2;Temp;Humidity;BMP_temperature;BMP_pressure;BME280_temperature;BME280_humidity;BME280_pressure;Samples;Min_cycle;Max_cycle;Signal;HPM_P1;HPM_P2
2022/07/29 00:00:58;;;;;;;;;8.00;8.00;;;;;25.91;37.52;98900.44;5048053;28;45401;-53
2022/07/29 00:03:23;;;;;;;;;6.50;6.00;;;;;25.87;37.61;98899.06;5055524;28;45510;-53
2022/07/29 00:05:49;;;;;;;;;6.25;6.25;;;;;25.83;37.35;98906.66;5045307;28;46320;-55
2022/07/29 00:08:15;;;;;;;;;6.50;6.50;;;;;25.81;37.34;98908.66;5055151;28;45410;-54
2022/07/29 00:10:41;;;;;;;;;6.00;4.75;;;;;25.81;37.57;98908.66;5043257;28;45597;-55
2022/07/29 00:13:06;;;;;;;;;7.75;6.50;;;;;25.79;37.67;98909.88;5054801;28;45507;-55
2022/07/29 00:15:32;;;;;;;;;7.75;7.25;;;;;25.78;37.77;98909.03;5046647;28;45944;-55
2022/07/29 00:17:57;;;;;;;;;8.25;8.00;;;;;25.76;37.53;98899.38;5053865;28;45429;-55
2022/07/29 00:20:22;;;;;;;;;6.75;6.75;;;;;25.75;37.72;98903.09;5053122;28;45776;-54
2022/07/29 00:22:48;;;;;;;;;8.00;8.00;;;;;25.74;37.57;98904.94;5055002;28;45314;-55
2022/07/29 00:25:13;;;;;;;;;6.75;5.50;;;;;25.75;37.51;98900.41;5048556;28;46549;-55
2022/07/29 00:27:39;;;;;;;;;7.25;7.00;;;;;25.76;37.91;98905.63;5049586;28;45365;-54
2022/07/29 00:30:06;;;;;;;;;7.25;6.00;;;;;25.78;37.35;98902.78;5048606;28;45437;-54
2022/07/29 00:32:31;;;;;;;;;6.50;6.50;;;;;25.77;37.68;98909.19;5047913;28;45438;-54
2022/07/29 00:37:40;;;;;;;;;7.00;6.75;;;;;25.75;38.05;98903.94;5042538;28;45310;-54
2022/07/29 00:40:07;;;;;;;;;7.00;7.00;;;;;25.75;38.13;98912.03;5046176;28;45483;-55
2022/07/29 00:42:45;;;;;;;;;7.00;6.00;;;;;25.74;38.21;98913.06;5054427;28;45478;-55
2022/07/29 00:45:12;;;;;;;;;11.75;9.50;;;;;25.74;38.21;98915.75;5045901;28;46231;-55
2022/07/29 00:47:37;;;;;;;;;7.25;7.25;;;;;25.72;38.57;98913.22;5054056;28;45427;-53
2022/07/29 00:50:04;;;;;;;;;10.00;9.25;;;;;25.69;38.83;98899.19;5048398;28;45719;-55
2022/07/29 00:52:30;;;;;;;;;9.25;9.25;;;;;25.61;38.75;98905.38;5049331;28;45577;-54
2022/07/29 00:54:56;;;;;;;;;8.75;8.00;;;;;25.57;38.89;98917.50;5048869;28;46914;-54
2022/07/29 00:57:21;;;;;;;;;11.50;10.75;;;;;25.54;39.07;98911.56;5043723;28;45528;-54
2022/07/29 00:59:47;;;;;;;;;6.50;6.00;;;;;25.49;38.63;98901.25;5050452;28;45294;-54
2022/07/29 01:02:12;;;;;;;;;5.00;5.00;;;;;25.47;38.70;98905.13;5048429;28;45556;-54
2022/07/29 01:04:38;;;;;;;;;6.25;6.25;;;;;25.45;38.63;98912.56;5051907;28;45491;-54
2022/07/29 01:07:04;;;;;;;;;8.00;8.00;;;;;25.44;38.54;98905.47;5048294;28;45452;-54
2022/07/29 01:09:32;;;;;;;;;6.50;6.50;;;;;25.44;38.93;98903.59;5050720;28;45519;-54
2022/07/29 01:11:59;;;;;;;;;8.00;8.00;;;;;25.42;39.33;98899.38;5046486;28;45381;-54
2022/07/29 01:14:25;;;;;;;;;7.50;7.50;;;;;25.39;39.44;98897.84;5050298;28;45451;-54
2022/07/29 01:17:01;;;;;;;;;8.50;7.75;;;;;25.36;39.48;98896.28;5045477;28;45491;-53
2022/07/29 01:19:52;;;;;;;;;8.75;8.00;;;;;25.35;39.52;98891.91;5048929;28;45293;-53
2022/07/29 01:22:55;;;;;;;;;5.00;5.00;;;;;25.29;39.55;98899.81;5049080;28;45470;-54
2022/07/29 01:25:45;;;;;;;;;11.50;11.50;;;;;25.26;39.40;98898.28;5043559;28;46569;-53
2022/07/29 01:28:37;;;;;;;;;8.00;8.00;;;;;25.23;39.50;98898.59;5049533;28;45349;-54
2022/07/29 01:31:04;;;;;;;;;12.00;10.00;;;;;25.21;40.06;98907.84;5046755;28;45558;-55
2022/07/29 01:33:51;;;;;;;;;9.50;9.50;;;;;25.19;40.18;98904.47;5051574;28;45268;-54
2022/07/29 01:36:30;;;;;;;;;7.00;7.00;;;;;25.17;40.31;98910.00;5043420;28;45604;-53
2022/07/29 01:39:08;;;;;;;;;11.25;9.50;;;;;25.16;40.44;98908.31;5038461;28;45567;-54
2022/07/29 01:41:38;;;;;;;;;9.25;8.75;;;;;25.17;40.58;98903.75;5050702;28;45312;-54
2022/07/29 01:44:19;;;;;;;;;8.50;8.50;;;;;25.18;40.92;98902.75;5050378;28;45435;-52
2022/07/29 01:46:54;;;;;;;;;8.00;8.00;;;;;25.18;40.73;98905.47;5050132;28;46230;-54
2022/07/29 01:49:27;;;;;;;;;8.00;5.75;;;;;25.12;40.85;98898.88;5049067;28;45408;-52
2022/07/29 01:51:59;;;;;;;;;7.50;7.50;;;;;25.08;40.84;98897.50;5053490;28;45430;-54
2022/07/29 01:54:35;;;;;;;;;7.50;7.50;;;;;25.01;40.99;98896.41;5048294;28;45363;-54
2022/07/29 01:57:03;;;;;;;;;8.75;8.75;;;;;24.94;41.39;98901.63;5046795;28;46396;-54
2022/07/29 01:59:30;;;;;;;;;8.75;7.50;;;;;24.92;41.13;98889.25;5045994;28;45545;-54
2022/07/29 02:01:58;;;;;;;;;8.25;8.25;;;;;24.90;40.76;98896.66;5047285;28;45442;-55
2022/07/29 02:04:25;;;;;;;;;8.50;8.50;;;;;24.88;40.77;98899.50;5047183;28;45619;-55
2022/07/29 02:06:53;;;;;;;;;8.25;8.25;;;;;24.86;41.02;98901.50;5047585;28;46118;-53
2022/07/29 02:09:21;;;;;;;;;9.00;9.00;;;;;24.86;40.92;98900.66;5048977;28;45470;-54
2022/07/29 02:11:52;;;;;;;;;8.50;8.00;;;;;24.84;41.11;98903.50;5050633;28;45335;-54
2022/07/29 02:14:23;;;;;;;;;11.00;8.00;;;;;24.85;41.38;98909.75;5050263;28;45497;-55
2022/07/29 02:16:52;;;;;;;;;7.25;7.00;;;;;24.85;41.09;98916.00;5044655;28;45578;-53
2022/07/29 02:19:20;;;;;;;;;7.75;7.25;;;;;24.85;41.26;98913.28;5049131;28;45459;-54
2022/07/29 02:21:47;;;;;;;;;7.75;7.50;;;;;24.86;41.16;98919.53;5050420;28;45388;-54
2022/07/29 02:24:15;;;;;;;;;11.25;8.50;;;;;24.85;41.23;98912.44;5049715;28;45383;-54
2022/07/29 02:26:43;;;;;;;;;7.75;7.75;;;;;24.83;40.94;98914.44;5048229;28;46736;-53
2022/07/29 02:29:11;;;;;;;;;9.00;7.50;;;;;24.81;41.49;98906.50;5050087;28;45510;-52
2022/07/29 02:31:38;;;;;;;;;9.25;9.25;;;;;24.75;41.13;98895.53;5047439;28;45381;-53
2022/07/29 02:34:08;;;;;;;;;9.00;9.00;;;;;24.71;40.89;98905.78;5054335;28;45570;-54
2022/07/29 02:36:34;;;;;;;;;8.50;8.50;;;;;24.67;41.15;98902.53;5048431;28;46478;-53
2022/07/29 02:39:01;;;;;;;;;8.50;8.50;;;;;24.66;41.00;98905.38;5054069;28;45476;-52
2022/07/29 02:41:44;;;;;;;;;9.50;9.50;;;;;24.64;42.26;98910.94;5055180;28;45425;-51
2022/07/29 02:44:15;;;;;;;;;10.50;8.00;;;;;24.57;42.17;98907.19;5053046;28;45523;-53
2022/07/29 02:46:50;;;;;;;;;8.75;8.75;;;;;24.51;42.00;98907.78;5053908;28;47317;-53
2022/07/29 02:49:34;;;;;;;;;6.50;6.50;;;;;24.45;42.08;98908.44;5052162;28;45478;-52
2022/07/29 02:52:37;;;;;;;;;12.00;8.00;;;;;24.40;42.50;98912.59;5053339;28;45568;-52
2022/07/29 02:55:18;;;;;;;;;7.50;7.25;;;;;24.35;42.07;98907.63;5011480;28;45588;-53
2022/07/29 02:57:51;;;;;;;;;9.00;8.25;;;;;24.29;41.98;98911.81;5047354;28;47213;-53
2022/07/29 03:00:17;;;;;;;;;10.00;8.75;;;;;24.23;42.16;98915.13;5043456;28;45437;-53
2022/07/29 03:02:45;;;;;;;;;9.75;8.00;;;;;24.19;42.06;98911.00;5054513;28;45366;-54
2022/07/29 03:05:18;;;;;;;;;6.50;6.50;;;;;24.14;42.47;98907.06;5045488;28;45603;-53
2022/07/29 03:07:51;;;;;;;;;10.25;7.25;;;;;24.07;42.74;98917.59;5052518;28;45459;-54
2022/07/29 03:10:18;;;;;;;;;7.50;7.50;;;;;24.05;42.63;98918.75;5045583;28;45464;-53
2022/07/29 03:12:44;;;;;;;;;7.00;7.00;;;;;24.00;42.83;98929.97;5048824;28;45507;-52
2022/07/29 03:15:10;;;;;;;;;6.25;6.25;;;;;23.97;42.54;98925.72;5049521;28;45456;-50
2022/07/29 03:17:37;;;;;;;;;8.75;8.75;;;;;23.93;42.99;98921.66;5055546;28;46305;-53
2022/07/29 03:20:03;;;;;;;;;8.00;7.50;;;;;23.88;42.94;98925.78;5053143;28;45526;-53
2022/07/29 03:22:29;;;;;;;;;7.00;6.00;;;;;23.85;43.33;98934.16;5053493;28;45361;-53
2022/07/29 03:24:54;;;;;;;;;7.00;7.00;;;;;23.81;42.73;98930.91;5049397;28;45426;-54
2022/07/29 03:27:20;;;;;;;;;7.00;6.00;;;;;23.75;43.17;98926.16;5047535;28;45451;-53
2022/07/29 03:29:45;;;;;;;;;6.25;6.00;;;;;23.72;43.43;98925.59;5050505;28;45403;-54
2022/07/29 03:32:11;;;;;;;;;9.00;7.00;;;;;23.68;43.21;98925.03;5045508;28;45429;-53
2022/07/29 03:34:37;;;;;;;;;6.25;6.25;;;;;23.65;43.56;98922.66;5054069;28;45447;-54
2022/07/29 03:37:05;;;;;;;;;6.75;6.25;;;;;23.61;43.48;98930.19;5043789;28;46350;-53
2022/07/29 03:39:34;;;;;;;;;7.00;6.25;;;;;23.60;43.79;98939.25;5053508;28;45393;-53
2022/07/29 03:42:01;;;;;;;;;7.00;6.75;;;;;23.63;44.45;98946.16;5047187;28;45448;-54
2022/07/29 03:44:28;;;;;;;;;6.00;5.00;;;;;23.63;43.77;98951.56;5050878;28;45398;-54
2022/07/29 03:46:57;;;;;;;;;8.25;8.25;;;;;23.64;44.45;98955.94;5046455;28;45580;-54
2022/07/29 03:49:26;;;;;;;;;8.00;8.00;;;;;23.64;44.56;98962.16;5053094;28;45433;-55
2022/07/29 03:51:51;;;;;;;;;7.75;7.75;;;;;23.62;44.08;98961.50;5052471;28;45507;-52
2022/07/29 03:54:17;;;;;;;;;8.00;7.00;;;;;23.61;43.70;98957.09;5051534;28;45346;-51
2022/07/29 03:56:47;;;;;;;;;10.00;8.75;;;;;23.62;44.59;98963.34;5050262;28;45882;-51
2022/07/29 03:59:17;;;;;;;;;9.25;7.50;;;;;23.60;45.21;98962.63;5051904;28;45400;-52
2022/07/29 04:01:43;;;;;;;;;11.00;9.50;;;;;23.59;44.71;98967.16;5049466;28;45293;-52
2022/07/29 04:04:09;;;;;;;;;8.75;7.50;;;;;23.61;45.02;98972.41;5052127;28;45603;-52
2022/07/29 04:06:42;;;;;;;;;10.50;9.50;;;;;23.67;45.23;98978.03;5048604;28;46451;-53
2022/07/29 04:09:08;;;;;;;;;10.00;10.00;;;;;23.67;44.49;98971.81;5052562;28;45491;-53
2022/07/29 04:11:34;;;;;;;;;8.75;8.00;;;;;23.66;44.79;98972.78;5044041;28;45544;-51
2022/07/29 04:13:59;;;;;;;;;8.25;8.25;;;;;23.65;44.37;98976.47;5052711;28;45435;-51
2022/07/29 04:16:25;;;;;;;;;9.00;8.50;;;;;23.65;44.34;98979.16;5048163;28;46307;-52
2022/07/29 04:18:50;;;;;;;;;8.25;8.00;;;;;23.64;44.19;98977.47;5051913;28;45464;-52
2022/07/29 04:21:15;;;;;;;;;8.00;6.75;;;;;23.69;44.83;98983.28;5049826;28;45385;-55
2022/07/29 04:23:41;;;;;;;;;9.25;8.75;;;;;23.72;44.08;98987.50;5052492;28;45362;-59
2022/07/29 04:26:09;;;;;;;;;7.50;7.50;;;;;23.72;44.36;98988.38;5047623;28;45576;-55
2022/07/29 04:28:35;;;;;;;;;9.00;9.00;;;;;23.67;44.90;98980.72;5049360;28;45459;-58
2022/07/29 04:31:00;;;;;;;;;9.25;9.25;;;;;23.65;44.36;98989.94;5046944;28;45463;-57
2022/07/29 04:33:25;;;;;;;;;8.75;8.75;;;;;23.65;44.39;98998.00;5048009;28;45436;-59
2022/07/29 04:35:51;;;;;;;;;9.25;8.25;;;;;23.67;44.76;98994.19;5046081;28;45673;-58
2022/07/29 04:38:16;;;;;;;;;8.25;6.75;;;;;23.69;44.98;98994.03;5046261;28;45455;-58
2022/07/29 04:40:42;;;;;;;;;9.00;9.00;;;;;23.71;44.70;98989.34;5044587;28;45531;-64
2022/07/29 04:43:07;;;;;;;;;10.25;9.00;;;;;23.78;44.48;98995.88;5053991;28;45400;-59
2022/07/29 04:45:33;;;;;;;;;15.00;14.00;;;;;23.83;44.34;98993.56;5044421;28;46357;-61
2022/07/29 04:47:58;;;;;;;;;13.00;13.00;;;;;23.85;44.47;98990.72;5054055;28;45526;-61
2022/07/29 04:50:23;;;;;;;;;7.75;7.75;;;;;23.81;44.44;98995.53;5045591;28;45554;-61
2022/07/29 04:52:49;;;;;;;;;8.75;8.00;;;;;23.76;44.17;99003.22;5051767;28;45631;-66
2022/07/29 04:55:14;;;;;;;;;9.00;8.25;;;;;23.72;44.82;99003.66;5046158;28;46243;-60
2022/07/29 04:57:40;;;;;;;;;6.25;6.25;;;;;23.69;44.90;99001.25;5051579;28;45357;-61
2022/07/29 05:00:06;;;;;;;;;7.50;7.00;;;;;23.66;44.76;99000.56;5046716;28;45486;-62
2022/07/29 05:02:32;;;;;;;;;6.00;6.00;;;;;23.64;44.88;98999.00;5049995;28;45519;-68
2022/07/29 05:04:57;;;;;;;;;7.00;5.75;;;;;23.66;44.85;99002.41;5050972;28;46063;-62
2022/07/29 05:07:23;;;;;;;;;7.50;6.00;;;;;23.70;44.48;99011.03;5048180;28;45377;-60
2022/07/29 05:09:48;;;;;;;;;5.50;5.50;;;;;23.71;44.85;99020.81;5050263;28;45430;-61
2022/07/29 05:12:13;;;;;;;;;8.00;7.25;;;;;23.73;44.01;99024.22;5046822;28;45429;-60
2022/07/29 05:14:39;;;;;;;;;8.50;7.75;;;;;23.77;44.14;99022.94;5047561;28;46519;-55
2022/07/29 05:17:05;;;;;;;;;6.25;6.00;;;;;23.82;44.25;99026.00;5050630;28;45499;-55
2022/07/29 05:19:30;;;;;;;;;6.75;5.25;;;;;23.84;43.79;99024.00;5049126;28;45386;-60
2022/07/29 05:21:56;;;;;;;;;6.25;6.25;;;;;23.84;43.77;99016.78;5053802;28;45452;-58
2022/07/29 05:24:21;;;;;;;;;7.00;6.75;;;;;23.81;43.80;99011.69;5050320;28;45639;-51
2022/07/29 05:26:46;;;;;;;;;7.00;6.75;;;;;23.80;44.20;99003.75;5046162;28;45399;-66
2022/07/29 05:29:12;;;;;;;;;7.50;7.50;;;;;23.82;44.10;99008.00;5049289;28;45449;-65
2022/07/29 05:31:37;;;;;;;;;8.00;7.00;;;;;23.85;44.05;99017.63;5039528;28;45547;-64
2022/07/29 05:34:02;;;;;;;;;6.00;6.00;;;;;23.85;44.15;99018.50;5049804;28;46223;-62
2022/07/29 05:36:28;;;;;;;;;9.00;8.00;;;;;23.86;44.02;99022.88;5038012;28;45448;-61
2022/07/29 05:38:53;;;;;;;;;7.75;7.75;;;;;23.86;44.10;99027.41;5048897;28;45450;-51
2022/07/29 05:41:19;;;;;;;;;7.75;7.75;;;;;23.85;44.30;99025.72;5046873;28;45410;-81
2022/07/29 05:43:45;;;;;;;;;7.25;7.25;;;;;23.84;44.54;99027.56;5052923;28;46507;-58
2022/07/29 05:46:10;;;;;;;;;9.50;6.75;;;;;23.80;44.30;99031.53;5048963;28;45545;-57
2022/07/29 05:48:36;;;;;;;;;7.75;7.75;;;;;23.77;44.74;99026.47;5052820;28;45870;-57
2022/07/29 05:51:01;;;;;;;;;9.00;7.00;;;;;23.74;44.26;99024.06;5047428;28;45509;-61
2022/07/29 05:53:27;;;;;;;;;6.50;6.50;;;;;23.78;44.83;99030.00;5053189;28;46253;-59
2022/07/29 05:55:52;;;;;;;;;7.25;7.25;;;;;23.85;44.63;99031.94;5047821;28;45476;-64
2022/07/29 05:58:18;;;;;;;;;9.75;8.75;;;;;23.87;44.56;99035.34;5048896;28;45274;-58
2022/07/29 06:00:43;;;;;;;;;7.00;7.00;;;;;23.87;44.39;99037.19;5042101;28;45471;-58
2022/07/29 06:03:09;;;;;;;;;10.25;8.00;;;;;23.88;43.72;99030.81;5053281;28;46516;-59
2022/07/29 06:05:34;;;;;;;;;9.00;8.50;;;;;23.91;44.13;99035.91;5046353;28;45403;-68
2022/07/29 06:08:00;;;;;;;;;7.00;7.00;;;;;23.92;44.23;99037.59;5054910;28;45402;-60
2022/07/29 06:10:26;;;;;;;;;8.00;7.75;;;;;23.96;44.00;99044.41;5048206;27;45316;-59
2022/07/29 06:12:52;;;;;;;;;9.00;8.75;;;;;24.00;43.95;99037.69;5054491;28;46387;-59
2022/07/29 06:15:17;;;;;;;;;8.25;8.25;;;;;24.06;43.59;99042.50;5046393;28;45423;-56
2022/07/29 06:17:43;;;;;;;;;9.00;7.25;;;;;24.15;43.65;99040.75;5053565;28;45570;-55
2022/07/29 06:20:09;;;;;;;;;9.00;8.00;;;;;24.24;43.33;99038.06;5050946;28;45663;-56
2022/07/29 06:22:34;;;;;;;;;11.75;10.00;;;;;24.30;44.03;99037.44;5051583;28;46332;-56
2022/07/29 06:25:01;;;;;;;;;10.75;10.00;;;;;24.39;44.08;99034.84;5052876;28;45523;-56
2022/07/29 06:27:26;;;;;;;;;10.50;10.00;;;;;24.47;44.08;99033.06;5051509;28;45364;-55
2022/07/29 06:29:52;;;;;;;;;9.00;9.00;;;;;24.56;43.77;99039.41;5049828;28;45497;-53
2022/07/29 06:32:17;;;;;;;;;13.00;10.75;;;;;24.67;43.94;99036.50;5050416;28;46431;-55
2022/07/29 06:34:42;;;;;;;;;10.25;10.25;;;;;24.79;43.88;99038.00;5051086;28;45314;-55
2022/07/29 06:37:08;;;;;;;;;11.50;10.00;;;;;24.93;43.61;99036.59;5053655;28;45427;-55
2022/07/29 06:39:36;;;;;;;;;13.00;11.75;;;;;25.08;43.66;99031.53;5052858;28;45463;-58
2022/07/29 06:42:01;;;;;;;;;10.75;10.00;;;;;25.19;43.35;99037.53;5046906;28;47447;-58
2022/07/29 06:44:27;;;;;;;;;7.75;7.25;;;;;25.31;43.49;99043.50;5051507;28;45506;-58
2022/07/29 06:46:52;;;;;;;;;11.00;10.00;;;;;25.44;43.06;99040.44;5054263;28;45321;-58
2022/07/29 06:49:18;;;;;;;;;12.00;11.00;;;;;25.49;43.21;99048.88;5052305;28;45523;-58
2022/07/29 06:51:43;;;;;;;;;12.50;11.25;;;;;25.54;43.09;99049.25;5041537;28;46000;-58
2022/07/29 06:54:09;;;;;;;;;11.75;11.00;;;;;25.57;43.07;99049.81;5049723;28;45468;-58
2022/07/29 06:56:37;;;;;;;;;10.25;9.75;;;;;25.61;42.91;99061.97;5051538;28;45333;-58
2022/07/29 06:59:02;;;;;;;;;11.50;10.50;;;;;25.68;43.01;99065.75;5051993;28;45368;-58
2022/07/29 07:01:28;;;;;;;;;11.25;10.50;;;;;25.72;42.56;99058.19;5050077;28;46520;-58
2022/07/29 07:03:53;;;;;;;;;41.00;34.67;;;;;25.76;42.62;99061.44;5051584;28;45488;-58
2022/07/29 07:06:19;;;;;;;;;8.50;8.50;;;;;25.80;42.94;99066.38;5044811;28;45424;-58
2022/07/29 07:08:44;;;;;;;;;12.00;10.00;;;;;25.84;42.39;99073.13;5053392;28;45331;-58
2022/07/29 07:11:09;;;;;;;;;8.00;8.00;;;;;25.86;42.42;99081.91;5048323;28;45530;-59
2022/07/29 07:13:35;;;;;;;;;10.50;10.25;;;;;25.90;42.23;99071.63;5054751;28;45435;-59
2022/07/29 07:16:02;;;;;;;;;15.75;14.00;;;;;25.97;42.01;99067.31;5044215;28;45468;-57
2022/07/29 07:18:27;;;;;;;;;29.25;26.00;;;;;26.03;42.10;99067.50;5054457;28;45412;-61
2022/07/29 07:20:53;;;;;;;;;9.50;9.00;;;;;26.08;42.08;99067.03;5048164;28;46600;-59
2022/07/29 07:23:18;;;;;;;;;10.75;10.75;;;;;26.11;41.94;99077.50;5054058;28;45540;-58
2022/07/29 07:25:44;;;;;;;;;11.00;11.00;;;;;26.17;41.70;99081.41;5049824;28;46024;-59
2022/07/29 07:28:09;;;;;;;;;11.25;10.75;;;;;26.18;41.82;99075.00;5051660;28;45392;-59
2022/07/29 07:30:35;;;;;;;;;11.00;10.50;;;;;26.19;41.42;99074.84;5049063;28;46646;-59
2022/07/29 07:33:00;;;;;;;;;11.25;10.00;;;;;26.21;41.43;99080.06;5049571;28;45460;-59
2022/07/29 07:35:27;;;;;;;;;12.50;10.75;;;;;26.22;41.31;99077.22;5049416;28;45419;-64
2022/07/29 07:37:53;;;;;;;;;10.75;10.00;;;;;26.22;41.47;99084.47;5055001;28;45407;-64
2022/07/29 07:40:19;;;;;;;;;13.75;11.75;;;;;26.21;41.37;99080.94;5051758;28;45404;-63
2022/07/29 07:42:44;;;;;;;;;12.25;12.25;;;;;26.21;41.43;99085.47;5053088;28;45425;-63
2022/07/29 07:45:10;;;;;;;;;10.00;9.25;;;;;26.25;41.63;99084.16;5044135;28;45571;-62
2022/07/29 07:47:37;;;;;;;;;12.25;10.50;;;;;26.27;41.33;99074.03;5055016;28;45489;-59
2022/07/29 07:50:08;;;;;;;;;11.25;10.25;;;;;26.30;41.33;99081.84;5053512;28;46186;-68
2022/07/29 07:52:33;;;;;;;;;8.50;8.00;;;;;26.32;41.25;99086.06;5051972;28;45431;-75
2022/07/29 07:54:59;;;;;;;;;9.00;9.00;;;;;26.37;40.89;99081.03;5049913;28;45471;-62
2022/07/29 07:57:25;;;;;;;;;14.25;10.75;;;;;26.41;40.85;99070.75;5043834;28;45476;-59
2022/07/29 07:59:50;;;;;;;;;11.00;10.00;;;;;26.47;40.48;99071.97;5050595;28;45487;-63
2022/07/29 08:02:16;;;;;;;;;13.25;12.75;;;;;26.52;40.23;99075.00;5042575;28;45421;-63
2022/07/29 08:04:42;;;;;;;;;11.00;9.75;;;;;26.56;40.37;99079.91;5050647;28;45604;-59
2022/07/29 08:07:08;;;;;;;;;14.25;12.75;;;;;26.59;40.25;99078.75;5045623;28;45420;-59
2022/07/29 08:09:35;;;;;;;;;15.00;15.00;;;;;26.65;40.55;99075.38;5050975;28;46591;-58
2022/07/29 08:12:03;;;;;;;;;15.50;14.50;;;;;26.72;41.08;99076.41;5045077;28;45477;-59
2022/07/29 08:14:29;;;;;;;;;12.50;12.50;;;;;26.85;40.42;99081.34;5049567;27;45515;-59
2022/07/29 08:16:55;;;;;;;;;17.75;13.00;;;;;26.97;40.32;99089.03;5042602;28;45488;-59
2022/07/29 08:19:20;;;;;;;;;16.00;15.00;;;;;27.05;40.62;99088.19;5043551;28;45548;-63
2022/07/29 08:21:45;;;;;;;;;14.50;12.50;;;;;27.13;40.33;99096.31;5050415;28;45452;-59
2022/07/29 08:26:55;;;;;;;;;13.00;12.00;;;;;27.24;40.37;99098.69;5047191;28;45430;-59
2022/07/29 08:29:20;;;;;;;;;13.25;12.00;;;;;27.23;40.17;99107.81;5050522;28;45467;-59
2022/07/29 08:31:45;;;;;;;;;12.75;11.75;;;;;27.23;40.17;99115.09;5047575;28;45504;-59
2022/07/29 08:34:11;;;;;;;;;10.50;9.25;;;;;27.16;40.12;99123.03;5051567;28;45612;-59
2022/07/29 08:36:38;;;;;;;;;11.00;10.50;;;;;27.06;40.52;99134.03;5050490;28;45491;-59
2022/07/29 08:39:04;;;;;;;;;12.00;9.50;;;;;26.97;40.09;99166.66;5049224;28;46365;-59
2022/07/29 08:41:29;;;;;;;;;12.00;11.50;;;;;26.84;40.48;99196.81;5049638;28;45447;-59
2022/07/29 08:43:55;;;;;;;;;12.75;12.25;;;;;26.70;40.88;99224.50;5043986;28;45474;-59
2022/07/29 08:46:21;;;;;;;;;12.75;12.75;;;;;26.55;41.35;99226.97;5048010;28;45539;-59
2022/07/29 08:48:47;;;;;;;;;348.75;299.00;;;;;26.45;40.92;99233.50;5047991;28;47213;-55
2022/07/29 08:51:19;;;;;;;;;21.00;20.50;;;;;26.32;41.20;99255.53;5050625;28;45322;-59
2022/07/29 08:53:47;;;;;;;;;10.50;9.50;;;;;26.22;41.84;99279.94;5047010;28;45511;-66
2022/07/29 08:56:16;;;;;;;;;13.25;10.00;;;;;26.14;42.54;99284.44;5041922;28;45516;-58
2022/07/29 08:58:42;;;;;;;;;12.25;12.25;;;;;26.00;43.70;99291.22;5041499;28;45557;-59
2022/07/29 09:01:10;;;;;;;;;13.75;12.00;;;;;25.86;44.65;99298.03;5049221;28;45464;-66
2022/07/29 09:03:37;;;;;;;;;17.25;16.00;;;;;25.73;46.39;99305.66;5038987;28;45492;-60
2022/07/29 09:06:04;;;;;;;;;19.75;16.00;;;;;25.54;46.49;99311.16;5052677;28;45501;-60
2022/07/29 09:08:32;;;;;;;;;23.00;21.00;;;;;25.27;48.74;99318.28;5053815;28;46793;-63
2022/07/29 09:10:59;;;;;;;;;12.00;12.00;;;;;25.03;49.00;99328.75;5052213;28;45403;-62
2022/07/29 09:13:25;;;;;;;;;12.75;12.00;;;;;24.81;50.55;99345.25;5043248;28;45491;-63
2022/07/29 09:15:51;;;;;;;;;17.25;13.75;;;;;24.58;52.32;99355.53;5051659;28;45559;-63
2022/07/29 09:18:42;;;;;;;;;14.25;12.50;;;;;24.33;51.84;99357.81;5053976;28;45567;-62
2022/07/29 09:24:12;;;;;;;;;14.25;14.25;;;;;23.96;54.55;99370.28;5053493;28;45302;-61
2022/07/29 09:26:43;;;;;;;;;15.00;13.75;;;;;23.89;55.78;99387.97;5033834;28;45473;-66
2022/07/29 09:29:14;;;;;;;;;11.50;11.50;;;;;23.80;54.24;99396.88;5033354;28;45778;-62
2022/07/29 09:31:44;;;;;;;;;14.25;13.75;;;;;23.59;55.21;99407.75;5045737;28;45455;-61
2022/07/29 09:34:11;;;;;;;;;14.00;12.75;;;;;23.28;56.23;99409.59;5039439;28;45478;-59
2022/07/29 09:36:45;;;;;;;;;14.75;14.75;;;;;22.89;59.30;99411.22;5033394;28;45411;-59
2022/07/29 09:39:12;;;;;;;;;15.75;14.75;;;;;22.52;60.63;99422.38;5033136;28;45471;-74
2022/07/29 09:41:46;;;;;;;;;15.75;15.25;;;;;22.20;61.40;99425.06;5034380;28;45417;-59
2022/07/29 09:44:11;;;;;;;;;11.25;11.00;;;;;21.92;64.11;99423.78;5038927;28;45358;-59
2022/07/29 09:46:36;;;;;;;;;14.00;14.00;;;;;21.62;65.65;99420.06;5044604;28;45337;-59
2022/07/29 09:49:10;;;;;;;;;14.75;14.25;;;;;21.42;65.63;99413.63;5046785;28;46164;-58
2022/07/29 09:51:36;;;;;;;;;17.50;13.00;;;;;21.34;66.92;99414.22;5039411;28;45491;-61
2022/07/29 09:54:20;;;;;;;;;17.00;16.75;;;;;21.25;67.49;99425.69;5047322;28;45678;-63
2022/07/29 09:56:47;;;;;;;;;18.25;16.50;;;;;21.15;64.79;99420.16;5047345;28;45373;-69
2022/07/29 09:59:13;;;;;;;;;13.25;13.00;;;;;21.09;68.01;99419.78;5050588;28;46236;-73
2022/07/29 10:01:39;;;;;;;;;16.75;15.25;;;;;21.02;68.73;99414.03;5046528;28;45558;-70
2022/07/29 10:04:05;;;;;;;;;14.00;14.00;;;;;21.01;66.82;99423.06;5045254;28;45523;-68
2022/07/29 10:06:30;;;;;;;;;12.25;12.25;;;;;20.96;67.52;99421.69;5045367;28;45404;-72
2022/07/29 10:09:10;;;;;;;;;17.75;13.00;;;;;20.92;67.11;99423.78;5046239;28;45597;-65
2022/07/29 10:11:36;;;;;;;;;14.00;13.00;;;;;20.88;67.52;99420.50;5048325;28;45449;-70
2022/07/29 10:14:03;;;;;;;;;6.00;4.75;;;;;20.88;68.31;99420.50;5045750;28;45484;-67
2022/07/29 10:16:32;;;;;;;;;20.75;15.50;;;;;20.91;69.70;99414.03;5044493;28;45820;-67
2022/07/29 10:18:59;;;;;;;;;18.75;16.75;;;;;20.91;69.71;99411.38;5053124;28;47168;-69
2022/07/29 10:21:25;;;;;;;;;16.75;16.00;;;;;20.89;70.70;99407.94;5039689;28;45381;-65
2022/07/29 10:23:52;;;;;;;;;17.00;15.75;;;;;20.90;71.77;99409.66;5046440;28;45382;-71
2022/07/29 10:26:19;;;;;;;;;13.00;12.00;;;;;20.84;71.42;99408.28;5055683;27;45542;-68
2022/07/29 10:28:45;;;;;;;;;14.50;14.25;;;;;20.82;71.13;99404.88;5056638;28;46446;-58
2022/07/29 10:31:21;;;;;;;;;16.25;14.25;;;;;20.87;70.91;99408.06;5056162;28;45368;-59
2022/07/29 10:34:00;;;;;;;;;18.67;14.67;;;;;20.91;70.99;99406.00;5055588;28;45550;-58
2022/07/29 10:36:56;;;;;;;;;15.25;14.75;;;;;20.92;69.94;99402.34;5042062;28;45507;-59
2022/07/29 10:39:44;;;;;;;;;9.75;9.50;;;;;20.99;70.22;99413.44;5051071;28;46422;-58
2022/07/29 10:42:10;;;;;;;;;15.75;15.25;;;;;21.05;70.31;99412.97;5035805;28;45330;-55
2022/07/29 10:44:39;;;;;;;;;21.75;18.25;;;;;21.18;70.96;99417.22;5034585;28;45569;-59
2022/07/29 10:47:04;;;;;;;;;20.33;20.00;;;;;21.33;71.24;99412.50;5050954;28;45465;-61
2022/07/29 10:49:30;;;;;;;;;25.67;21.00;;;;;21.42;71.96;99410.94;5045155;28;45467;-62
2022/07/29 10:52:10;;;;;;;;;21.25;20.00;;;;;21.49;72.09;99415.66;5052674;28;45527;-63
2022/07/29 10:54:35;;;;;;;;;17.75;17.25;;;;;21.55;71.53;99415.19;5046911;28;45468;-60
2022/07/29 10:57:19;;;;;;;;;18.75;15.75;;;;;21.61;70.19;99411.16;5051044;28;45927;-61
2022/07/29 10:59:49;;;;;;;;;31.00;29.00;;;;;21.67;71.68;99404.44;5047067;28;45690;-61
2022/07/29 11:02:33;;;;;;;;;22.25;18.75;;;;;21.75;71.70;99410.03;5042929;28;45504;-60
2022/07/29 11:04:59;;;;;;;;;19.75;19.00;;;;;21.83;70.31;99408.41;5046766;28;45560;-60
2022/07/29 11:07:31;;;;;;;;;23.00;21.67;;;;;21.89;71.39;99413.28;5047671;28;45467;-61
2022/07/29 11:10:11;;;;;;;;;20.33;18.00;;;;;22.00;71.75;99425.00;5050339;28;45360;-61
2022/07/29 11:12:36;;;;;;;;;21.67;21.67;;;;;22.08;71.28;99425.25;5052929;28;45450;-61
2022/07/29 11:15:12;;;;;;;;;24.75;19.75;;;;;22.16;70.07;99420.06;5044621;28;45484;-61
2022/07/29 11:18:00;;;;;;;;;20.75;18.25;;;;;22.24;69.73;99420.31;5054701;28;45547;-67
2022/07/29 11:20:49;;;;;;;;;30.67;29.67;;;;;22.35;68.91;99409.50;5048368;28;45403;-61
2022/07/29 11:23:31;;;;;;;;;16.25;16.00;;;;;22.50;69.26;99412.72;5047840;27;45463;-59
2022/07/29 11:26:25;;;;;;;;;17.50;17.25;;;;;22.58;68.24;99408.44;5040975;28;45502;-60
2022/07/29 11:28:53;;;;;;;;;19.00;18.00;;;;;22.63;68.95;99408.88;5048292;28;45440;-58
2022/07/29 11:31:43;;;;;;;;;18.00;17.75;;;;;22.70;69.37;99400.28;5052062;28;45697;-61
2022/07/29 11:34:23;;;;;;;;;16.25;16.25;;;;;22.70;68.55;99398.44;5050232;28;45500;-62
2022/07/29 11:37:08;;;;;;;;;20.00;17.75;;;;;22.77;69.02;99383.56;5051560;28;45475;-59
2022/07/29 11:39:36;;;;;;;;;21.50;18.25;;;;;22.85;68.76;99382.88;5043355;28;45553;-59
2022/07/29 11:42:16;;;;;;;;;17.50;17.50;;;;;22.93;68.83;99372.31;5048429;28;46554;-59